sensor_id;sensor_type;location;lat;lon;timestamp;P1;durP1;ratioP1;P2;durP2;ratioP2
21354;SDS011;10835;50.148;19.760;2022-07-23T00:01:17;10.27;;;6.38;;
21354;SDS011;10835;50.148;19.760;2022-07-23T00:03:52;10.00;;;6.40;;
21354;SDS011;10835;50.148;19.760;2022-07-23T00:06:21;8.43;;;6.57;;
21354;SDS011;10835;50.148;19.760;2022-07-23T00:08:49;11.18;;;6.78;;
21354;SDS011;10835;50.148;19.760;2022-07-23T00:11:17;9.27;;;6.25;;
21354;SDS011;10835;50.148;19.760;2022-07-23T00:13:47;8.25;;;6.15;;
21354;SDS011;10835;50.148;19.760;2022-07-23T00:16:15;9.43;;;6.72;;
21354;SDS011;10835;50.148;19.760;2022-07-23T00:18:43;7.53;;;5.90;;
21354;SDS011;10835;50.148;19.760;2022-07-23T00:21:11;8.80;;;6.57;;
21354;SDS011;10835;50.148;19.760;2022-07-23T00:23:39;8.07;;;6.20;;
21354;SDS011;10835;50.148;19.760;2022-07-23T00:26:07;7.93;;;6.50;;
21354;SDS011;10835;50.148;19.760;2022-07-23T00:28:35;9.60;;;6.50;;
21354;SDS011;10835;50.148;19.760;2022-07-23T00:31:05;7.28;;;6.18;;
21354;SDS011;10835;50.148;19.760;2022-07-23T00:33:36;6.78;;;5.97;;
21354;SDS011;10835;50.148;19.760;2022-07-23T00:36:04;7.00;;;6.30;;
21354;SDS011;10835;50.148;19.760;2022-07-23T00:38:33;9.15;;;6.82;;
21354;SDS011;10835;50.148;19.760;2022-07-23T00:41:01;8.70;;;6.20;;
21354;SDS011;10835;50.148;19.760;2022-07-23T00:43:30;7.50;;;6.20;;
21354;SDS011;10835;50.148;19.760;2022-07-23T00:45:58;8.73;;;5.60;;
21354;SDS011;10835;50.148;19.760;2022-07-23T00:48:29;6.90;;;5.85;;
21354;SDS011;10835;50.148;19.760;2022-07-23T00:50:57;8.77;;;6.32;;
21354;SDS011;10835;50.148;19.760;2022-07-23T00:53:25;6.90;;;5.82;;
21354;SDS011;10835;50.148;19.760;2022-07-23T00:55:54;7.97;;;5.32;;
21354;SDS011;10835;50.148;19.760;2022-07-23T00:58:22;7.90;;;6.05;;
21354;SDS011;10835;50.148;19.760;2022-07-23T01:00:50;6.88;;;5.65;;
21354;SDS011;10835;50.148;19.760;2022-07-23T01:03:18;7.65;;;5.90;;
21354;SDS011;10835;50.148;19.760;2022-07-23T01:05:48;6.78;;;5.55;;
21354;SDS011;10835;50.148;19.760;2022-07-23T01:08:16;6.03;;;5.43;;
21354;SDS011;10835;50.148;19.760;2022-07-23T01:10:48;6.88;;;5.70;;
21354;SDS011;10835;50.148;19.760;2022-07-23T01:13:17;7.40;;;5.57;;
21354;SDS011;10835;50.148;19.760;2022-07-23T01:15:45;6.72;;;5.22;;
21354;SDS011;10835;50.148;19.760;2022-07-23T01:18:13;8.98;;;6.05;;
21354;SDS011;10835;50.148;19.760;2022-07-23T01:20:41;6.45;;;5.82;;
21354;SDS011;10835;50.148;19.760;2022-07-23T01:23:11;8.40;;;6.22;;
21354;SDS011;10835;50.148;19.760;2022-07-23T01:25:48;10.27;;;5.93;;
21354;SDS011;10835;50.148;19.760;2022-07-23T01:28:16;7.05;;;6.05;;
21354;SDS011;10835;50.148;19.760;2022-07-23T01:30:45;6.65;;;5.55;;
21354;SDS011;10835;50.148;19.760;2022-07-23T01:33:15;7.22;;;5.80;;
21354;SDS011;10835;50.148;19.760;2022-07-23T01:35:43;11.30;;;5.78;;
21354;SDS011;10835;50.148;19.760;2022-07-23T01:38:18;6.65;;;5.30;;
21354;SDS011;10835;50.148;19.760;2022-07-23T01:40:46;7.18;;;5.72;;
21354;SDS011;10835;50.148;19.760;2022-07-23T01:43:21;6.10;;;5.13;;
21354;SDS011;10835;50.148;19.760;2022-07-23T01:45:53;7.82;;;5.75;;
21354;SDS011;10835;50.148;19.760;2022-07-23T01:48:23;6.90;;;5.80;;
21354;SDS011;10835;50.148;19.760;2022-07-23T01:51:11;7.90;;;5.38;;
21354;SDS011;10835;50.148;19.760;2022-07-23T01:53:44;8.95;;;5.72;;
21354;SDS011;10835;50.148;19.760;2022-07-23T01:56:13;6.55;;;5.15;;
21354;SDS011;10835;50.148;19.760;2022-07-23T01:58:41;7.13;;;5.03;;
21354;SDS011;10835;50.148;19.760;2022-07-23T02:01:10;6.38;;;5.18;;
21354;SDS011;10835;50.148;19.760;2022-07-23T02:03:38;6.13;;;5.53;;
21354;SDS011;10835;50.148;19.760;2022-07-23T02:06:06;6.95;;;5.78;;
21354;SDS011;10835;50.148;19.760;2022-07-23T02:08:35;8.77;;;4.97;;
21354;SDS011;10835;50.148;19.760;2022-07-23T02:11:05;6.70;;;5.50;;
21354;SDS011;10835;50.148;19.760;2022-07-23T02:13:34;11.45;;;5.63;;
21354;SDS011;10835;50.148;19.760;2022-07-23T02:16:02;7.40;;;5.15;;
21354;SDS011;10835;50.148;19.760;2022-07-23T02:18:30;6.03;;;5.22;;
21354;SDS011;10835;50.148;19.760;2022-07-23T02:20:58;6.75;;;4.82;;
21354;SDS011;10835;50.148;19.760;2022-07-23T02:23:27;7.20;;;4.80;;
21354;SDS011;10835;50.148;19.760;2022-07-23T02:25:55;6.28;;;5.35;;
21354;SDS011;10835;50.148;19.760;2022-07-23T02:28:24;5.97;;;4.93;;
21354;SDS011;10835;50.148;19.760;2022-07-23T02:30:52;6.85;;;5.40;;
21354;SDS011;10835;50.148;19.760;2022-07-23T02:33:20;5.78;;;5.20;;
21354;SDS011;10835;50.148;19.760;2022-07-23T02:35:48;6.18;;;4.90;;
21354;SDS011;10835;50.148;19.760;2022-07-23T02:38:18;6.85;;;4.93;;
21354;SDS011;10835;50.148;19.760;2022-07-23T02:40:46;6.80;;;5.53;;
21354;SDS011;10835;50.148;19.760;2022-07-23T02:43:16;5.40;;;4.57;;
21354;SDS011;10835;50.148;19.760;2022-07-23T02:45:46;7.13;;;5.00;;
21354;SDS011;10835;50.148;19.760;2022-07-23T02:48:15;5.95;;;5.25;;
21354;SDS011;10835;50.148;19.760;2022-07-23T02:50:46;7.13;;;5.25;;
21354;SDS011;10835;50.148;19.760;2022-07-23T02:53:18;7.85;;;5.05;;
21354;SDS011;10835;50.148;19.760;2022-07-23T02:55:47;6.63;;;5.30;;
21354;SDS011;10835;50.148;19.760;2022-07-23T02:58:15;7.75;;;4.90;;
21354;SDS011;10835;50.148;19.760;2022-07-23T03:00:43;5.95;;;4.90;;
21354;SDS011;10835;50.148;19.760;2022-07-23T03:03:13;8.80;;;5.03;;
21354;SDS011;10835;50.148;19.760;2022-07-23T03:05:41;5.57;;;4.43;;
21354;SDS011;10835;50.148;19.760;2022-07-23T03:08:09;6.10;;;5.00;;
21354;SDS011;10835;50.148;19.760;2022-07-23T03:10:40;9.15;;;5.18;;
21354;SDS011;10835;50.148;19.760;2022-07-23T03:13:08;5.80;;;4.78;;
21354;SDS011;10835;50.148;19.760;2022-07-23T03:15:37;8.75;;;5.15;;
21354;SDS011;10835;50.148;19.760;2022-07-23T03:18:06;5.72;;;4.55;;
21354;SDS011;10835;50.148;19.760;2022-07-23T03:20:34;6.50;;;5.20;;
21354;SDS011;10835;50.148;19.760;2022-07-23T03:23:02;5.70;;;5.10;;
21354;SDS011;10835;50.148;19.760;2022-07-23T03:25:30;6.40;;;5.05;;
21354;SDS011;10835;50.148;19.760;2022-07-23T03:27:58;6.90;;;4.97;;
21354;SDS011;10835;50.148;19.760;2022-07-23T03:30:28;6.25;;;4.80;;
21354;SDS011;10835;50.148;19.760;2022-07-23T03:32:56;8.43;;;5.30;;
21354;SDS011;10835;50.148;19.760;2022-07-23T03:35:25;5.57;;;4.95;;
21354;SDS011;10835;50.148;19.760;2022-07-23T03:38:10;6.15;;;4.90;;
21354;SDS011;10835;50.148;19.760;2022-07-23T03:40:39;6.78;;;4.75;;
21354;SDS011;10835;50.148;19.760;2022-07-23T03:43:07;6.90;;;5.18;;
21354;SDS011;10835;50.148;19.760;2022-07-23T03:45:35;5.03;;;4.32;;
21354;SDS011;10835;50.148;19.760;2022-07-23T03:48:03;5.22;;;4.32;;
21354;SDS011;10835;50.148;19.760;2022-07-23T03:50:33;6.30;;;5.03;;
21354;SDS011;10835;50.148;19.760;2022-07-23T03:53:03;7.05;;;4.95;;
21354;SDS011;10835;50.148;19.760;2022-07-23T03:55:33;6.88;;;5.10;;
21354;SDS011;10835;50.148;19.760;2022-07-23T03:58:01;7.35;;;4.80;;
21354;SDS011;10835;50.148;19.760;2022-07-23T04:00:29;8.48;;;5.18;;
21354;SDS011;10835;50.148;19.760;2022-07-23T04:02:58;6.13;;;4.95;;
21354;SDS011;10835;50.148;19.760;2022-07-23T04:05:27;6.15;;;5.10;;
21354;SDS011;10835;50.148;19.760;2022-07-23T04:08:05;6.55;;;4.82;;
21354;SDS011;10835;50.148;19.760;2022-07-23T04:10:37;8.55;;;5.22;;
21354;SDS011;10835;50.148;19.760;2022-07-23T04:13:07;8.80;;;5.53;;
21354;SDS011;10835;50.148;19.760;2022-07-23T04:15:35;5.97;;;4.30;;
21354;SDS011;10835;50.148;19.760;2022-07-23T04:18:04;5.43;;;4.60;;
21354;SDS011;10835;50.148;19.760;2022-07-23T04:20:42;8.40;;;5.20;;
21354;SDS011;10835;50.148;19.760;2022-07-23T04:23:12;5.68;;;4.90;;
21354;SDS011;10835;50.148;19.760;2022-07-23T04:25:41;7.00;;;5.63;;
21354;SDS011;10835;50.148;19.760;2022-07-23T04:28:09;6.00;;;5.30;;
21354;SDS011;10835;50.148;19.760;2022-07-23T04:30:37;5.95;;;4.80;;
21354;SDS011;10835;50.148;19.760;2022-07-23T04:33:07;6.18;;;5.00;;
21354;SDS011;10835;50.148;19.760;2022-07-23T04:35:37;5.32;;;4.68;;
21354;SDS011;10835;50.148;19.760;2022-07-23T04:38:14;6.60;;;5.28;;
21354;SDS011;10835;50.148;19.760;2022-07-23T04:40:43;7.65;;;5.47;;
21354;SDS011;10835;50.148;19.760;2022-07-23T04:43:11;7.25;;;4.88;;
21354;SDS011;10835;50.148;19.760;2022-07-23T04:45:44;6.13;;;4.65;;
21354;SDS011;10835;50.148;19.760;2022-07-23T04:48:13;7.70;;;5.63;;
21354;SDS011;10835;50.148;19.760;2022-07-23T04:50:43;6.32;;;4.80;;
21354;SDS011;10835;50.148;19.760;2022-07-23T04:53:18;12.68;;;4.90;;
21354;SDS011;10835;50.148;19.760;2022-07-23T04:55:47;6.63;;;5.40;;
21354;SDS011;10835;50.148;19.760;2022-07-23T04:58:15;8.23;;;5.32;;
21354;SDS011;10835;50.148;19.760;2022-07-23T05:00:43;9.18;;;5.88;;
21354;SDS011;10835;50.148;19.760;2022-07-23T05:03:12;6.53;;;5.38;;
21354;SDS011;10835;50.148;19.760;2022-07-23T05:05:40;6.13;;;4.82;;
21354;SDS011;10835;50.148;19.760;2022-07-23T05:08:12;6.32;;;5.25;;
21354;SDS011;10835;50.148;19.760;2022-07-23T05:10:44;6.13;;;5.50;;
21354;SDS011;10835;50.148;19.760;2022-07-23T05:13:14;6.78;;;5.47;;
21354;SDS011;10835;50.148;19.760;2022-07-23T05:15:42;5.47;;;4.80;;
21354;SDS011;10835;50.148;19.760;2022-07-23T05:18:11;8.13;;;5.35;;
21354;SDS011;10835;50.148;19.760;2022-07-23T05:20:40;6.20;;;5.25;;
21354;SDS011;10835;50.148;19.760;2022-07-23T05:23:14;5.88;;;4.78;;
21354;SDS011;10835;50.148;19.760;2022-07-23T05:25:44;6.45;;;5.60;;
21354;SDS011;10835;50.148;19.760;2022-07-23T05:28:12;7.82;;;6.32;;
21354;SDS011;10835;50.148;19.760;2022-07-23T05:30:40;12.10;;;7.32;;
21354;SDS011;10835;50.148;19.760;2022-07-23T05:33:12;12.93;;;6.75;;
21354;SDS011;10835;50.148;19.760;2022-07-23T05:35:40;12.57;;;7.15;;
21354;SDS011;10835;50.148;19.760;2022-07-23T05:38:38;10.82;;;6.20;;
21354;SDS011;10835;50.148;19.760;2022-07-23T05:41:07;7.78;;;5.97;;
21354;SDS011;10835;50.148;19.760;2022-07-23T05:43:37;9.48;;;5.65;;
21354;SDS011;10835;50.148;19.760;2022-07-23T05:46:09;12.75;;;6.30;;
21354;SDS011;10835;50.148;19.760;2022-07-23T05:48:40;8.88;;;6.60;;
21354;SDS011;10835;50.148;19.760;2022-07-23T05:51:27;9.68;;;6.28;;
21354;SDS011;10835;50.148;19.760;2022-07-23T05:53:55;9.45;;;7.80;;
21354;SDS011;10835;50.148;19.760;2022-07-23T05:56:28;9.07;;;7.35;;
21354;SDS011;10835;50.148;19.760;2022-07-23T05:58:56;17.20;;;7.95;;
21354;SDS011;10835;50.148;19.760;2022-07-23T06:01:24;8.93;;;7.18;;
21354;SDS011;10835;50.148;19.760;2022-07-23T06:04:01;11.05;;;7.72;;
21354;SDS011;10835;50.148;19.760;2022-07-23T06:06:34;12.98;;;8.57;;
21354;SDS011;10835;50.148;19.760;2022-07-23T06:09:02;14.48;;;9.05;;
21354;SDS011;10835;50.148;19.760;2022-07-23T06:11:32;16.48;;;8.95;;
21354;SDS011;10835;50.148;19.760;2022-07-23T06:14:00;13.95;;;8.82;;
21354;SDS011;10835;50.148;19.760;2022-07-23T06:16:43;12.00;;;9.73;;
21354;SDS011;10835;50.148;19.760;2022-07-23T06:19:14;12.25;;;8.48;;
21354;SDS011;10835;50.148;19.760;2022-07-23T06:21:43;15.63;;;9.60;;
21354;SDS011;10835;50.148;19.760;2022-07-23T06:24:14;12.30;;;8.55;;
21354;SDS011;10835;50.148;19.760;2022-07-23T06:26:43;13.13;;;9.68;;
21354;SDS011;10835;50.148;19.760;2022-07-23T06:29:12;14.13;;;9.40;;
21354;SDS011;10835;50.148;19.760;2022-07-23T06:31:41;12.52;;;9.32;;
21354;SDS011;10835;50.148;19.760;2022-07-23T06:34:09;13.27;;;8.77;;
21354;SDS011;10835;50.148;19.760;2022-07-23T06:36:37;17.17;;;9.73;;
21354;SDS011;10835;50.148;19.760;2022-07-23T06:39:08;11.40;;;7.88;;
21354;SDS011;10835;50.148;19.760;2022-07-23T06:41:43;14.73;;;9.90;;
21354;SDS011;10835;50.148;19.760;2022-07-23T06:44:16;11.13;;;8.95;;
21354;SDS011;10835;50.148;19.760;2022-07-23T06:46:47;19.42;;;10.10;;
21354;SDS011;10835;50.148;19.760;2022-07-23T06:49:15;11.55;;;9.23;;
21354;SDS011;10835;50.148;19.760;2022-07-23T06:51:43;12.95;;;10.07;;
21354;SDS011;10835;50.148;19.760;2022-07-23T06:54:11;12.45;;;9.40;;
21354;SDS011;10835;50.148;19.760;2022-07-23T06:56:39;14.90;;;10.15;;
21354;SDS011;10835;50.148;19.760;2022-07-23T06:59:10;12.40;;;8.98;;
21354;SDS011;10835;50.148;19.760;2022-07-23T07:01:38;12.25;;;10.25;;
21354;SDS011;10835;50.148;19.760;2022-07-23T07:04:06;12.68;;;9.07;;
21354;SDS011;10835;50.148;19.760;2022-07-23T07:06:34;11.05;;;9.23;;
21354;SDS011;10835;50.148;19.760;2022-07-23T07:09:03;12.80;;;8.82;;
21354;SDS011;10835;50.148;19.760;2022-07-23T07:11:31;13.30;;;8.77;;
21354;SDS011;10835;50.148;19.760;2022-07-23T07:13:59;14.02;;;9.00;;
21354;SDS011;10835;50.148;19.760;2022-07-23T07:16:29;16.20;;;8.60;;
21354;SDS011;10835;50.148;19.760;2022-07-23T07:18:58;12.60;;;8.00;;
21354;SDS011;10835;50.148;19.760;2022-07-23T07:21:28;11.02;;;8.32;;
21354;SDS011;10835;50.148;19.760;2022-07-23T07:23:56;14.85;;;8.57;;
21354;SDS011;10835;50.148;19.760;2022-07-23T07:26:24;9.52;;;7.90;;
21354;SDS011;10835;50.148;19.760;2022-07-23T07:28:54;8.40;;;7.43;;
21354;SDS011;10835;50.148;19.760;2022-07-23T07:31:23;11.32;;;7.60;;
21354;SDS011;10835;50.148;19.760;2022-07-23T07:33:52;11.30;;;8.25;;
21354;SDS011;10835;50.148;19.760;2022-07-23T07:36:23;10.75;;;7.72;;
21354;SDS011;10835;50.148;19.760;2022-07-23T07:38:51;12.23;;;7.00;;
21354;SDS011;10835;50.148;19.760;2022-07-23T07:41:20;8.98;;;7.72;;
21354;SDS011;10835;50.148;19.760;2022-07-23T07:43:50;10.63;;;8.80;;
21354;SDS011;10835;50.148;19.760;2022-07-23T07:46:18;9.27;;;6.22;;
21354;SDS011;10835;50.148;19.760;2022-07-23T07:48:46;9.57;;;6.90;;
21354;SDS011;10835;50.148;19.760;2022-07-23T07:51:20;8.52;;;7.35;;
21354;SDS011;10835;50.148;19.760;2022-07-23T07:53:53;8.00;;;6.40;;
21354;SDS011;10835;50.148;19.760;2022-07-23T07:56:21;10.60;;;7.13;;
21354;SDS011;10835;50.148;19.760;2022-07-23T07:58:50;7.45;;;6.15;;
21354;SDS011;10835;50.148;19.760;2022-07-23T08:01:18;8.57;;;6.90;;
21354;SDS011;10835;50.148;19.760;2022-07-23T08:03:48;8.70;;;6.28;;
21354;SDS011;10835;50.148;19.760;2022-07-23T08:06:17;9.90;;;7.75;;
21354;SDS011;10835;50.148;19.760;2022-07-23T08:08:48;13.05;;;7.28;;
21354;SDS011;10835;50.148;19.760;2022-07-23T08:11:16;11.38;;;7.18;;
21354;SDS011;10835;50.148;19.760;2022-07-23T08:13:44;10.18;;;7.32;;
21354;SDS011;10835;50.148;19.760;2022-07-23T08:16:12;8.50;;;6.75;;
21354;SDS011;10835;50.148;19.760;2022-07-23T08:18:42;8.32;;;6.97;;
21354;SDS011;10835;50.148;19.760;2022-07-23T08:21:10;10.23;;;7.43;;
21354;SDS011;10835;50.148;19.760;2022-07-23T08:23:38;8.98;;;7.30;;
21354;SDS011;10835;50.148;19.760;2022-07-23T08:26:07;11.43;;;6.95;;
21354;SDS011;10835;50.148;19.760;2022-07-23T08:28:36;9.70;;;7.13;;
21354;SDS011;10835;50.148;19.760;2022-07-23T08:31:04;13.18;;;7.85;;
21354;SDS011;10835;50.148;19.760;2022-07-23T08:33:32;10.32;;;7.43;;
21354;SDS011;10835;50.148;19.760;2022-07-23T08:36:01;8.85;;;7.20;;
21354;SDS011;10835;50.148;19.760;2022-07-23T08:38:48;9.32;;;8.05;;
21354;SDS011;10835;50.148;19.760;2022-07-23T08:41:17;8.82;;;7.28;;
21354;SDS011;10835;50.148;19.760;2022-07-23T08:44:13;10.95;;;8.00;;
21354;SDS011;10835;50.148;19.760;2022-07-23T08:46:53;11.90;;;7.78;;
21354;SDS011;10835;50.148;19.760;2022-07-23T09:12:53;11.55;;;8.23;;
21354;SDS011;10835;50.148;19.760;2022-07-23T09:15:21;7.32;;;6.50;;
21354;SDS011;10835;50.148;19.760;2022-07-23T09:17:49;8.88;;;7.15;;
21354;SDS011;10835;50.148;19.760;2022-07-23T09:20:17;11.90;;;7.20;;
21354;SDS011;10835;50.148;19.760;2022-07-23T09:22:45;11.60;;;7.65;;
21354;SDS011;10835;50.148;19.760;2022-07-23T09:25:16;9.32;;;7.45;;
21354;SDS011;10835;50.148;19.760;2022-07-23T09:27:46;14.15;;;7.30;;
21354;SDS011;10835;50.148;19.760;2022-07-23T09:30:22;8.65;;;6.65;;
21354;SDS011;10835;50.148;19.760;2022-07-23T09:35:43;9.15;;;6.50;;
21354;SDS011;10835;50.148;19.760;2022-07-23T09:38:16;8.35;;;6.85;;
21354;SDS011;10835;50.148;19.760;2022-07-23T09:40:46;8.68;;;7.07;;
21354;SDS011;10835;50.148;19.760;2022-07-23T09:43:32;12.98;;;7.30;;
21354;SDS011;10835;50.148;19.760;2022-07-23T09:48:52;10.00;;;7.60;;
21354;SDS011;10835;50.148;19.760;2022-07-23T09:51:20;10.18;;;6.88;;
21354;SDS011;10835;50.148;19.760;2022-07-23T09:53:53;8.52;;;6.22;;
21354;SDS011;10835;50.148;19.760;2022-07-23T09:56:21;12.40;;;7.22;;
21354;SDS011;10835;50.148;19.760;2022-07-23T09:58:53;8.77;;;6.38;;
21354;SDS011;10835;50.148;19.760;2022-07-23T10:01:31;7.65;;;6.57;;
21354;SDS011;10835;50.148;19.760;2022-07-23T10:04:00;7.70;;;6.13;;
21354;SDS011;10835;50.148;19.760;2022-07-23T10:06:49;9.18;;;6.07;;
21354;SDS011;10835;50.148;19.760;2022-07-23T10:09:52;6.63;;;5.07;;
21354;SDS011;10835;50.148;19.760;2022-07-23T10:12:42;6.10;;;5.30;;
21354;SDS011;10835;50.148;19.760;2022-07-23T10:15:41;7.22;;;5.55;;
21354;SDS011;10835;50.148;19.760;2022-07-23T10:18:12;6.43;;;4.63;;
21354;SDS011;10835;50.148;19.760;2022-07-23T10:20:41;6.70;;;5.47;;
21354;SDS011;10835;50.148;19.760;2022-07-23T10:23:10;5.93;;;5.32;;
21354;SDS011;10835;50.148;19.760;2022-07-23T10:25:48;5.00;;;4.38;;
21354;SDS011;10835;50.148;19.760;2022-07-23T10:28:46;6.22;;;5.20;;
21354;SDS011;10835;50.148;19.760;2022-07-23T10:31:30;5.35;;;4.85;;
21354;SDS011;10835;50.148;19.760;2022-07-23T10:34:29;6.57;;;4.72;;
21354;SDS011;10835;50.148;19.760;2022-07-23T10:37:06;7.75;;;5.40;;
21354;SDS011;10835;50.148;19.760;2022-07-23T10:39:47;11.07;;;5.95;;
21354;SDS011;10835;50.148;19.760;2022-07-23T10:42:16;7.30;;;5.60;;
21354;SDS011;10835;50.148;19.760;2022-07-23T10:44:48;7.15;;;5.53;;
21354;SDS011;10835;50.148;19.760;2022-07-23T10:47:21;7.93;;;5.82;;
21354;SDS011;10835;50.148;19.760;2022-07-23T10:50:20;7.38;;;5.40;;
21354;SDS011;10835;50.148;19.760;2022-07-23T10:53:08;6.07;;;5.20;;
21354;SDS011;10835;50.148;19.760;2022-07-23T10:55:52;5.20;;;4.70;;
21354;SDS011;10835;50.148;19.760;2022-07-23T10:58:21;6.05;;;4.97;;
21354;SDS011;10835;50.148;19.760;2022-07-23T11:04:05;6.30;;;5.40;;
21354;SDS011;10835;50.148;19.760;2022-07-23T11:09:38;6.13;;;5.10;;
21354;SDS011;10835;50.148;19.760;2022-07-23T11:15:06;6.57;;;5.35;;
21354;SDS011;10835;50.148;19.760;2022-07-23T11:17:36;5.60;;;5.10;;
21354;SDS011;10835;50.148;19.760;2022-07-23T11:20:13;8.68;;;5.55;;
21354;SDS011;10835;50.148;19.760;2022-07-23T11:22:48;5.63;;;5.03;;
21354;SDS011;10835;50.148;19.760;2022-07-23T11:25:29;7.22;;;5.43;;
21354;SDS011;10835;50.148;19.760;2022-07-23T11:28:10;6.47;;;5.10;;
21354;SDS011;10835;50.148;19.760;2022-07-23T11:30:41;7.00;;;4.97;;
21354;SDS011;10835;50.148;19.760;2022-07-23T11:33:16;6.85;;;4.93;;
21354;SDS011;10835;50.148;19.760;2022-07-23T11:35:46;10.20;;;5.22;;
21354;SDS011;10835;50.148;19.760;2022-07-23T11:38:17;5.32;;;4.55;;
21354;SDS011;10835;50.148;19.760;2022-07-23T11:40:47;5.65;;;4.97;;
21354;SDS011;10835;50.148;19.760;2022-07-23T11:43:16;6.85;;;4.78;;
21354;SDS011;10835;50.148;19.760;2022-07-23T11:45:46;5.50;;;5.00;;
21354;SDS011;10835;50.148;19.760;2022-07-23T11:48:17;10.05;;;5.50;;
21354;SDS011;10835;50.148;19.760;2022-07-23T11:50:47;5.50;;;4.88;;
21354;SDS011;10835;50.148;19.760;2022-07-23T11:53:22;6.78;;;4.78;;
21354;SDS011;10835;50.148;19.760;2022-07-23T11:55:52;6.68;;;5.22;;
21354;SDS011;10835;50.148;19.760;2022-07-23T11:58:21;8.25;;;5.35;;
21354;SDS011;10835;50.148;19.760;2022-07-23T12:00:50;6.20;;;5.13;;
21354;SDS011;10835;50.148;19.760;2022-07-23T12:03:19;7.65;;;5.13;;
21354;SDS011;10835;50.148;19.760;2022-07-23T12:05:47;5.50;;;4.90;;
21354;SDS011;10835;50.148;19.760;2022-07-23T12:08:15;5.72;;;5.13;;
21354;SDS011;10835;50.148;19.760;2022-07-23T12:10:45;5.55;;;5.05;;
21354;SDS011;10835;50.148;19.760;2022-07-23T12:13:13;5.90;;;5.30;;
21354;SDS011;10835;50.148;19.760;2022-07-23T12:15:43;5.75;;;5.15;;
21354;SDS011;10835;50.148;19.760;2022-07-23T12:18:13;7.25;;;5.40;;
21354;SDS011;10835;50.148;19.760;2022-07-23T12:20:44;5.70;;;4.90;;
21354;SDS011;10835;50.148;19.760;2022-07-23T12:23:15;5.60;;;5.05;;
21354;SDS011;10835;50.148;19.760;2022-07-23T12:25:49;7.50;;;4.90;;
21354;SDS011;10835;50.148;19.760;2022-07-23T12:28:19;6.05;;;5.20;;
21354;SDS011;10835;50.148;19.760;2022-07-23T12:30:49;6.97;;;5.05;;
21354;SDS011;10835;50.148;19.760;2022-07-23T12:33:21;5.65;;;5.05;;
21354;SDS011;10835;50.148;19.760;2022-07-23T12:35:52;5.95;;;5.07;;
21354;SDS011;10835;50.148;19.760;2022-07-23T12:38:23;5.45;;;4.95;;
21354;SDS011;10835;50.148;19.760;2022-07-23T12:40:53;8.43;;;4.90;;
21354;SDS011;10835;50.148;19.760;2022-07-23T12:43:23;7.78;;;4.65;;
21354;SDS011;10835;50.148;19.760;2022-07-23T12:45:54;9.32;;;5.43;;
21354;SDS011;10835;50.148;19.760;2022-07-23T12:48:25;6.80;;;5.10;;
21354;SDS011;10835;50.148;19.760;2022-07-23T12:50:55;8.27;;;4.97;;
21354;SDS011;10835;50.148;19.760;2022-07-23T12:53:26;6.18;;;5.25;;
21354;SDS011;10835;50.148;19.760;2022-07-23T12:56:01;5.53;;;5.03;;
21354;SDS011;10835;50.148;19.760;2022-07-23T12:58:41;5.15;;;4.65;;
21354;SDS011;10835;50.148;19.760;2022-07-23T13:04:00;7.38;;;5.72;;
21354;SDS011;10835;50.148;19.760;2022-07-23T13:06:51;8.43;;;5.13;;
21354;SDS011;10835;50.148;19.760;2022-07-23T13:09:21;5.95;;;4.93;;
21354;SDS011;10835;50.148;19.760;2022-07-23T13:11:52;5.75;;;5.15;;
21354;SDS011;10835;50.148;19.760;2022-07-23T13:14:22;5.78;;;5.18;;
21354;SDS011;10835;50.148;19.760;2022-07-23T13:16:52;5.20;;;4.70;;
21354;SDS011;10835;50.148;19.760;2022-07-23T13:19:22;7.15;;;5.72;;
21354;SDS011;10835;50.148;19.760;2022-07-23T13:21:52;5.78;;;5.20;;
21354;SDS011;10835;50.148;19.760;2022-07-23T13:24:20;6.13;;;5.30;;
21354;SDS011;10835;50.148;19.760;2022-07-23T13:26:49;5.97;;;5.13;;
21354;SDS011;10835;50.148;19.760;2022-07-23T13:29:19;5.20;;;4.55;;
21354;SDS011;10835;50.148;19.760;2022-07-23T13:31:47;7.47;;;5.00;;
21354;SDS011;10835;50.148;19.760;2022-07-23T13:34:16;7.85;;;5.38;;
21354;SDS011;10835;50.148;19.760;2022-07-23T13:36:45;6.50;;;5.55;;
21354;SDS011;10835;50.148;19.760;2022-07-23T13:39:14;7.93;;;6.07;;
21354;SDS011;10835;50.148;19.760;2022-07-23T13:41:43;5.88;;;5.25;;
21354;SDS011;10835;50.148;19.760;2022-07-23T13:44:15;7.20;;;5.20;;
21354;SDS011;10835;50.148;19.760;2022-07-23T13:46:45;6.57;;;5.75;;
21354;SDS011;10835;50.148;19.760;2022-07-23T13:49:13;6.47;;;5.88;;
21354;SDS011;10835;50.148;19.760;2022-07-23T13:51:41;6.68;;;5.45;;
21354;SDS011;10835;50.148;19.760;2022-07-23T13:54:10;6.53;;;5.80;;
21354;SDS011;10835;50.148;19.760;2022-07-23T13:56:38;7.97;;;5.57;;
21354;SDS011;10835;50.148;19.760;2022-07-23T13:59:06;6.25;;;5.65;;
21354;SDS011;10835;50.148;19.760;2022-07-23T14:01:34;7.03;;;6.07;;
21354;SDS011;10835;50.148;19.760;2022-07-23T14:04:24;6.20;;;5.57;;
21354;SDS011;10835;50.148;19.760;2022-07-23T14:06:55;8.48;;;5.95;;
21354;SDS011;10835;50.148;19.760;2022-07-23T14:09:24;5.75;;;5.07;;
21354;SDS011;10835;50.148;19.760;2022-07-23T14:11:54;8.50;;;5.95;;
21354;SDS011;10835;50.148;19.760;2022-07-23T14:14:21;9.45;;;6.22;;
21354;SDS011;10835;50.148;19.760;2022-07-23T14:16:49;6.63;;;5.93;;
21354;SDS011;10835;50.148;19.760;2022-07-23T14:19:18;6.95;;;5.90;;
21354;SDS011;10835;50.148;19.760;2022-07-23T14:21:47;9.18;;;6.30;;
21354;SDS011;10835;50.148;19.760;2022-07-23T14:24:16;6.82;;;5.63;;
21354;SDS011;10835;50.148;19.760;2022-07-23T14:26:47;7.75;;;5.72;;
21354;SDS011;10835;50.148;19.760;2022-07-23T14:29:15;10.23;;;6.38;;
21354;SDS011;10835;50.148;19.760;2022-07-23T14:31:44;7.50;;;6.50;;
21354;SDS011;10835;50.148;19.760;2022-07-23T14:34:13;8.32;;;6.50;;
21354;SDS011;10835;50.148;19.760;2022-07-23T14:36:41;9.05;;;6.82;;
21354;SDS011;10835;50.148;19.760;2022-07-23T14:39:11;6.78;;;6.07;;
21354;SDS011;10835;50.148;19.760;2022-07-23T14:41:39;8.52;;;6.43;;
21354;SDS011;10835;50.148;19.760;2022-07-23T14:44:07;10.35;;;6.78;;
21354;SDS011;10835;50.148;19.760;2022-07-23T14:46:36;8.55;;;6.43;;
21354;SDS011;10835;50.148;19.760;2022-07-23T14:49:04;8.27;;;6.82;;
21354;SDS011;10835;50.148;19.760;2022-07-23T14:51:33;7.57;;;6.38;;
21354;SDS011;10835;50.148;19.760;2022-07-23T14:54:02;7.82;;;6.95;;
21354;SDS011;10835;50.148;19.760;2022-07-23T14:56:32;8.15;;;6.32;;
21354;SDS011;10835;50.148;19.760;2022-07-23T14:59:02;7.75;;;6.63;;
21354;SDS011;10835;50.148;19.760;2022-07-23T15:01:31;10.82;;;7.45;;
21354;SDS011;10835;50.148;19.760;2022-07-23T15:04:00;24.02;;;7.57;;
21354;SDS011;10835;50.148;19.760;2022-07-23T15:06:48;12.65;;;7.22;;
21354;SDS011;10835;50.148;19.760;2022-07-23T15:09:16;9.20;;;6.72;;
21354;SDS011;10835;50.148;19.760;2022-07-23T15:11:46;11.35;;;7.82;;
21354;SDS011;10835;50.148;19.760;2022-07-23T15:14:15;12.02;;;7.90;;
21354;SDS011;10835;50.148;19.760;2022-07-23T15:16:53;13.48;;;8.23;;
21354;SDS011;10835;50.148;19.760;2022-07-23T15:19:22;9.57;;;7.75;;
21354;SDS011;10835;50.148;19.760;2022-07-23T15:21:50;16.58;;;8.65;;
21354;SDS011;10835;50.148;19.760;2022-07-23T15:24:18;12.40;;;9.05;;
21354;SDS011;10835;50.148;19.760;2022-07-23T15:26:48;14.23;;;8.52;;
21354;SDS011;10835;50.148;19.760;2022-07-23T15:29:16;12.35;;;9.00;;
21354;SDS011;10835;50.148;19.760;2022-07-23T15:31:46;14.38;;;8.73;;
21354;SDS011;10835;50.148;19.760;2022-07-23T15:34:24;11.57;;;8.98;;